SCCY/GXQ METAR and TAF weather

Enter ICAO airport designator
Station Type Date Time Source
SCCY METAR 2021/07/30 08:00 UTC NOAA

SCCY 300800Z AUTO 05009KT 9999 FEW005 02/01 Q1008


Station Type Date Time Source
SCCY Decoded METAR 2021/07/30 08:00 UTC NOAA

Coyhaique, Chile (SCCY) 45-35S 072-07W
Jul 30, 2021 - 04:00 AM EDT / 2021.07.30 0800 UTC
Wind: from the NE (050 degrees) at 10 MPH (9 KT):0
Visibility: greater than 7 mile(s):0
Sky conditions: mostly clear
Temperature: 35 F (2 C)
Windchill: 26 F (-3 C):1
Dew Point: 33 F (1 C)
Relative Humidity: 93%
Pressure (altimeter): 29.77 in. Hg (1008 hPa)
ob: SCCY 300800Z AUTO 05009KT 9999 FEW005 02/01 Q1008
cycle: 8

Station Type Date Time Source
SCCY TAF 2021/07/29 12:33 UTC NOAA

TAF SCCY 291113Z 2912/2924 04010KT 9999 SCT020 TN04/2912Z TX08/2918Z
BECMG 2918/2920 29015KT
BECMG 2921/2923 7000 -RA BKN020 BKN040

Example: see airport list